Time;durP1;ratioP1;P1;durP2;ratioP2;P2;SDS_P1;SDS_P2;PMS_P1;PMS_P2;Temp;Humidity;BMP_temperature;BMP_pressure;BME280_temperature;BME280_humidity;BME280_pressure;Samples;Min_cycle;Max_cycle;Signal;HPM_P1;HPM_P2
2024/01/14 00:01:58;;;;;;;41.00;21.10;;;2.00;99.90;;;;;;5044871;28;20205;-71
2024/01/14 00:04:24;;;;;;;43.70;23.60;;;2.00;99.90;;;;;;5041703;28;20453;-71
2024/01/14 00:06:50;;;;;;;41.70;22.40;;;2.00;99.90;;;;;;5042640;28;20471;-73
2024/01/14 00:09:19;;;;;;;44.13;24.40;;;1.90;99.90;;;;;;5042245;28;20202;-72
2024/01/14 00:11:45;;;;;;;43.13;21.60;;;1.90;99.90;;;;;;5043560;28;20420;-72
2024/01/14 00:14:10;;;;;;;38.80;21.00;;;2.00;99.90;;;;;;5042734;28;20524;-72
2024/01/14 00:16:36;;;;;;;40.10;21.60;;;2.00;99.90;;;;;;5042350;28;20437;-72
2024/01/14 00:19:03;;;;;;;43.27;21.83;;;2.00;99.90;;;;;;5042323;28;20531;-71
2024/01/14 00:21:29;;;;;;;42.33;22.23;;;2.00;99.90;;;;;;5045336;28;20198;-72
2024/01/14 00:23:55;;;;;;;39.00;20.63;;;2.00;99.90;;;;;;5046514;28;20412;-70
2024/01/14 00:26:20;;;;;;;41.17;21.07;;;1.90;99.90;;;;;;5046210;28;20210;-70
2024/01/14 00:28:47;;;;;;;39.70;21.67;;;2.00;99.90;;;;;;5042973;28;20715;-72
2024/01/14 00:31:12;;;;;;;42.27;22.30;;;2.00;99.90;;;;;;5042834;28;20792;-72
2024/01/14 00:33:40;;;;;;;47.17;21.87;;;2.00;99.90;;;;;;5043481;28;20499;-72
2024/01/14 00:36:06;;;;;;;41.00;20.87;;;1.90;99.90;;;;;;5046656;28;20210;-70
2024/01/14 00:38:32;;;;;;;38.37;19.90;;;1.90;99.90;;;;;;5045244;28;20539;-69
2024/01/14 00:40:58;;;;;;;39.97;20.80;;;1.90;99.90;;;;;;5042605;28;20440;-70
2024/01/14 00:43:24;;;;;;;36.63;18.57;;;1.90;99.90;;;;;;5042847;28;20182;-69
2024/01/14 00:45:50;;;;;;;38.37;19.80;;;2.00;99.90;;;;;;5039864;28;20448;-69
2024/01/14 00:48:15;;;;;;;36.80;19.90;;;2.00;99.90;;;;;;5040862;28;20194;-69
2024/01/14 00:50:41;;;;;;;37.07;20.30;;;2.00;99.90;;;;;;5040995;28;20517;-70
2024/01/14 00:53:07;;;;;;;40.37;21.00;;;2.00;99.90;;;;;;5040846;28;20221;-72
2024/01/14 00:55:32;;;;;;;42.60;21.03;;;1.90;99.90;;;;;;5057126;28;20226;-69
2024/01/14 00:57:59;;;;;;;44.00;22.23;;;1.90;99.90;;;;;;5040537;28;20590;-72
2024/01/14 01:00:26;;;;;;;31.83;18.97;;;2.00;99.90;;;;;;5039918;28;20182;-70
2024/01/14 01:02:51;;;;;;;36.10;19.73;;;2.00;99.90;;;;;;5040362;28;20456;-69
2024/01/14 01:05:17;;;;;;;42.63;20.73;;;1.90;99.90;;;;;;5041400;28;20437;-71
2024/01/14 01:07:42;;;;;;;43.13;20.97;;;1.90;99.90;;;;;;5039123;28;20200;-70
2024/01/14 01:10:09;;;;;;;42.70;22.70;;;1.90;99.90;;;;;;5040779;28;20194;-69
2024/01/14 01:12:34;;;;;;;38.53;20.77;;;1.90;99.90;;;;;;5043289;28;20186;-70
2024/01/14 01:15:00;;;;;;;35.97;18.97;;;1.90;99.90;;;;;;5041509;28;20447;-69
2024/01/14 01:17:26;;;;;;;46.13;21.87;;;1.90;99.90;;;;;;5038779;28;20178;-70
2024/01/14 01:19:51;;;;;;;37.77;21.10;;;1.90;99.90;;;;;;5039598;28;20252;-68
2024/01/14 01:22:17;;;;;;;39.37;21.27;;;2.00;99.90;;;;;;5040233;28;20263;-71
2024/01/14 01:24:43;;;;;;;34.63;20.67;;;1.90;99.90;;;;;;5040804;28;20190;-71
2024/01/14 01:27:09;;;;;;;36.37;20.13;;;2.00;99.90;;;;;;5043147;28;20218;-69
2024/01/14 01:29:35;;;;;;;36.87;19.50;;;2.00;99.90;;;;;;5041255;28;20460;-69
2024/01/14 01:32:00;;;;;;;34.20;19.60;;;1.90;99.90;;;;;;5038163;28;20186;-70
2024/01/14 01:34:26;;;;;;;34.37;17.87;;;1.90;99.90;;;;;;5038216;28;20252;-70
2024/01/14 01:36:52;;;;;;;36.90;19.03;;;1.90;99.90;;;;;;5037844;28;20209;-70
2024/01/14 01:39:17;;;;;;;39.37;19.47;;;1.90;99.90;;;;;;5036139;28;20198;-69
2024/01/14 01:41:43;;;;;;;38.40;18.13;;;1.90;99.90;;;;;;5038216;28;20210;-70
2024/01/14 01:44:09;;;;;;;34.27;18.70;;;2.00;99.90;;;;;;5037664;28;20633;-70
2024/01/14 01:46:35;;;;;;;34.73;18.83;;;2.00;99.90;;;;;;5039994;28;20304;-70
2024/01/14 01:49:01;;;;;;;33.77;18.83;;;2.00;99.90;;;;;;5038728;28;20750;-70
2024/01/14 01:51:27;;;;;;;34.20;18.40;;;2.00;99.90;;;;;;5037899;28;20194;-69
2024/01/14 01:53:53;;;;;;;33.47;17.50;;;1.90;99.90;;;;;;5039475;28;20519;-69
2024/01/14 01:56:19;;;;;;;30.00;18.00;;;1.90;99.90;;;;;;5038015;28;20233;-69
2024/01/14 01:58:45;;;;;;;40.37;20.50;;;1.90;99.90;;;;;;5037483;28;20293;-69
2024/01/14 02:01:11;;;;;;;31.90;18.07;;;1.90;99.90;;;;;;5038681;28;20441;-70
2024/01/14 02:03:37;;;;;;;36.40;19.07;;;1.80;99.90;;;;;;5038166;28;20416;-70
2024/01/14 02:06:04;;;;;;;32.90;17.23;;;1.80;99.90;;;;;;5039708;28;20214;-69
2024/01/14 02:08:29;;;;;;;34.53;18.33;;;1.80;99.90;;;;;;5037087;28;20186;-70
2024/01/14 02:10:55;;;;;;;31.27;17.50;;;1.80;99.90;;;;;;5037477;28;20424;-69
2024/01/14 02:13:20;;;;;;;32.90;17.50;;;1.70;99.90;;;;;;5053941;28;20340;-69
2024/01/14 02:15:46;;;;;;;34.27;17.50;;;1.80;99.90;;;;;;5037458;28;20209;-70
2024/01/14 02:18:12;;;;;;;24.83;15.03;;;1.80;99.90;;;;;;5037366;28;20225;-71
2024/01/14 02:20:39;;;;;;;32.50;18.43;;;1.80;99.90;;;;;;5037151;28;20202;-70
2024/01/14 02:23:09;;;;;;;31.93;18.10;;;1.80;99.90;;;;;;5038588;28;20546;-70
2024/01/14 02:25:35;;;;;;;36.60;20.57;;;1.80;99.90;;;;;;5055042;28;20433;-69
2024/01/14 02:28:01;;;;;;;33.23;17.33;;;1.80;99.90;;;;;;5037937;28;20421;-71
2024/01/14 02:30:28;;;;;;;33.50;18.07;;;1.80;99.90;;;;;;5038700;28;20630;-68
2024/01/14 02:32:54;;;;;;;30.60;17.03;;;1.80;99.90;;;;;;5038879;28;20460;-70
2024/01/14 02:35:20;;;;;;;33.07;17.60;;;1.80;99.90;;;;;;5038146;28;20491;-69
2024/01/14 02:37:47;;;;;;;34.10;18.30;;;1.70;99.90;;;;;;5039764;28;20428;-69
2024/01/14 02:40:13;;;;;;;30.57;17.20;;;1.80;99.90;;;;;;5037025;28;20412;-70
2024/01/14 02:42:40;;;;;;;32.53;15.40;;;1.70;99.90;;;;;;5039194;28;20524;-70
2024/01/14 02:45:08;;;;;;;29.20;15.13;;;1.80;99.90;;;;;;5041974;28;20444;-68
2024/01/14 02:47:34;;;;;;;32.97;17.50;;;1.80;99.90;;;;;;5040619;28;20409;-71
2024/01/14 02:49:59;;;;;;;28.20;16.20;;;1.80;99.90;;;;;;5041713;28;20420;-69
2024/01/14 02:52:25;;;;;;;30.83;15.37;;;1.90;99.90;;;;;;5056446;28;20293;-69
2024/01/14 02:54:50;;;;;;;26.70;15.70;;;1.80;99.90;;;;;;5040647;28;20300;-70
2024/01/14 02:57:16;;;;;;;27.57;15.20;;;1.80;99.90;;;;;;5038991;28;20198;-72
2024/01/14 02:59:41;;;;;;;25.20;13.63;;;1.80;99.90;;;;;;5038084;28;20191;-68
2024/01/14 03:02:07;;;;;;;26.73;14.90;;;1.80;99.90;;;;;;5037448;28;20499;-70
2024/01/14 03:04:33;;;;;;;27.27;14.60;;;1.90;99.90;;;;;;5036936;28;20201;-71
2024/01/14 03:06:58;;;;;;;26.33;13.73;;;1.90;99.90;;;;;;5041919;28;20206;-68
2024/01/14 03:09:24;;;;;;;25.70;14.60;;;1.90;99.90;;;;;;5040067;28;20281;-69
2024/01/14 03:11:51;;;;;;;25.87;13.27;;;1.90;99.90;;;;;;5040246;28;20178;-69
2024/01/14 03:14:16;;;;;;;28.30;15.13;;;1.90;99.90;;;;;;5041383;28;20357;-66
2024/01/14 03:16:43;;;;;;;29.23;14.37;;;1.90;99.90;;;;;;5041150;28;20541;-69
2024/01/14 03:19:09;;;;;;;25.97;15.33;;;1.90;99.90;;;;;;5039614;28;20280;-69
2024/01/14 03:21:34;;;;;;;23.00;13.80;;;2.00;99.90;;;;;;5039770;28;20453;-69
2024/01/14 03:24:00;;;;;;;24.27;14.63;;;2.00;99.90;;;;;;5046960;28;20182;-68
2024/01/14 03:26:26;;;;;;;23.90;12.27;;;1.90;99.90;;;;;;5045788;28;20234;-69
2024/01/14 03:28:51;;;;;;;25.30;15.30;;;1.90;99.90;;;;;;5041184;28;20186;-68
2024/01/14 03:31:17;;;;;;;26.53;15.50;;;1.90;99.90;;;;;;5039888;28;20182;-69
2024/01/14 03:33:43;;;;;;;24.10;12.47;;;1.90;99.90;;;;;;5039405;28;20202;-68
2024/01/14 03:36:15;;;;;;;27.70;14.37;;;1.90;99.90;;;;;;5041297;28;20657;-69
2024/01/14 03:38:41;;;;;;;27.40;14.37;;;1.90;99.90;;;;;;5042517;28;20467;-68
2024/01/14 03:41:07;;;;;;;30.80;14.90;;;1.90;99.90;;;;;;5038760;28;20939;-68
2024/01/14 03:43:32;;;;;;;21.90;12.60;;;1.90;99.90;;;;;;5038753;28;20516;-70
2024/01/14 03:45:58;;;;;;;22.10;12.87;;;1.90;99.90;;;;;;5040515;28;20256;-71
2024/01/14 03:48:24;;;;;;;23.30;13.80;;;1.90;99.90;;;;;;5039259;28;20222;-67
2024/01/14 03:50:49;;;;;;;27.23;14.73;;;1.90;99.90;;;;;;5039185;28;20269;-69
2024/01/14 03:53:15;;;;;;;19.80;12.57;;;1.90;99.90;;;;;;5040290;28;20309;-69
2024/01/14 03:55:40;;;;;;;22.17;12.70;;;1.90;99.90;;;;;;5039795;28;20281;-69
2024/01/14 03:58:06;;;;;;;24.50;14.50;;;1.90;99.90;;;;;;5039425;28;20179;-69
2024/01/14 04:00:32;;;;;;;24.40;13.30;;;1.90;99.90;;;;;;5040054;28;20274;-68
2024/01/14 04:02:58;;;;;;;26.37;13.87;;;1.90;99.90;;;;;;5040518;28;20263;-68
2024/01/14 04:05:23;;;;;;;23.90;12.40;;;1.90;99.90;;;;;;5038720;28;20317;-70
2024/01/14 04:07:51;;;;;;;22.10;12.57;;;1.90;99.90;;;;;;5038505;28;20202;-68
2024/01/14 04:10:17;;;;;;;22.80;12.27;;;1.80;99.90;;;;;;5038550;28;20836;-68
2024/01/14 04:12:43;;;;;;;19.47;11.50;;;1.80;99.90;;;;;;5040488;28;20498;-68
2024/01/14 04:15:09;;;;;;;21.53;12.00;;;1.80;99.90;;;;;;5047989;28;20213;-69
2024/01/14 04:17:35;;;;;;;21.53;11.83;;;1.80;99.90;;;;;;5047553;28;20192;-69
2024/01/14 04:20:01;;;;;;;27.00;13.10;;;1.90;99.90;;;;;;5051652;28;20496;-68
2024/01/14 04:22:26;;;;;;;19.40;12.30;;;1.80;99.90;;;;;;5048792;28;20198;-69
2024/01/14 04:24:52;;;;;;;22.03;12.67;;;1.80;99.90;;;;;;5047170;28;20706;-67
2024/01/14 04:27:18;;;;;;;25.10;14.03;;;1.80;99.90;;;;;;5047666;28;20198;-69
2024/01/14 04:29:44;;;;;;;23.03;13.53;;;1.80;99.90;;;;;;5047291;28;20755;-68
2024/01/14 04:32:10;;;;;;;23.70;13.00;;;1.80;99.90;;;;;;5045775;28;20236;-69
2024/01/14 04:34:36;;;;;;;23.10;13.43;;;1.80;99.90;;;;;;5037310;28;20464;-69
2024/01/14 04:37:02;;;;;;;22.20;12.20;;;1.70;99.90;;;;;;5036993;28;20249;-69
2024/01/14 04:39:27;;;;;;;20.57;12.50;;;1.80;99.90;;;;;;5037749;28;20413;-69
2024/01/14 04:41:53;;;;;;;18.67;11.07;;;1.80;99.90;;;;;;5037080;28;20222;-69
2024/01/14 04:44:19;;;;;;;22.97;12.10;;;1.70;99.90;;;;;;5038215;28;20225;-67
2024/01/14 04:46:45;;;;;;;17.80;11.40;;;1.80;99.90;;;;;;5037840;28;20218;-68
2024/01/14 04:49:10;;;;;;;20.53;11.90;;;1.80;99.90;;;;;;5037453;28;20650;-68
2024/01/14 04:51:38;;;;;;;18.53;12.00;;;1.80;99.90;;;;;;5037038;28;20457;-68
2024/01/14 04:54:04;;;;;;;19.97;11.73;;;1.80;99.90;;;;;;5037005;28;20253;-68
2024/01/14 04:56:30;;;;;;;18.80;11.67;;;1.80;99.90;;;;;;5037459;28;20433;-68
2024/01/14 04:58:55;;;;;;;19.43;10.77;;;1.80;99.90;;;;;;5036779;28;20214;-68
2024/01/14 05:01:21;;;;;;;21.27;11.87;;;1.80;99.90;;;;;;5037441;28;20766;-69
2024/01/14 05:03:47;;;;;;;20.60;12.07;;;1.70;99.90;;;;;;5042463;28;20198;-68
2024/01/14 05:06:13;;;;;;;19.90;11.70;;;1.70;99.90;;;;;;5037203;28;20216;-67
2024/01/14 05:08:42;;;;;;;19.10;11.80;;;1.70;99.90;;;;;;5036282;28;20763;-69
2024/01/14 05:11:08;;;;;;;20.90;11.87;;;1.70;99.90;;;;;;5037393;28;20228;-69
2024/01/14 05:13:33;;;;;;;19.67;9.90;;;1.70;99.90;;;;;;5037640;28;20518;-69
2024/01/14 05:15:59;;;;;;;23.23;10.80;;;1.70;99.90;;;;;;5037947;28;20233;-67
2024/01/14 05:18:25;;;;;;;20.50;11.03;;;1.70;99.90;;;;;;5037797;28;20683;-70
2024/01/14 05:20:50;;;;;;;17.07;9.87;;;1.70;99.90;;;;;;5037777;28;20194;-70
2024/01/14 05:23:16;;;;;;;21.60;11.93;;;1.70;99.90;;;;;;5039491;28;20268;-68
2024/01/14 05:25:42;;;;;;;22.33;12.43;;;1.70;99.90;;;;;;5036728;28;20241;-69
2024/01/14 05:28:07;;;;;;;19.50;11.20;;;1.80;99.90;;;;;;5036783;28;20214;-70
2024/01/14 05:30:33;;;;;;;17.37;9.77;;;1.80;99.90;;;;;;5037514;28;20232;-68
2024/01/14 05:32:59;;;;;;;19.27;10.87;;;1.80;99.90;;;;;;5036116;28;20220;-68
2024/01/14 05:35:24;;;;;;;18.37;9.80;;;1.80;99.90;;;;;;5036717;28;20198;-68
2024/01/14 05:37:50;;;;;;;16.97;10.47;;;1.80;99.90;;;;;;5037911;28;20190;-70
2024/01/14 05:40:15;;;;;;;19.90;10.50;;;1.80;99.90;;;;;;5040136;28;20193;-70
2024/01/14 05:42:42;;;;;;;21.57;11.10;;;1.80;99.90;;;;;;5039603;28;20237;-68
2024/01/14 05:45:10;;;;;;;20.30;11.40;;;1.80;99.90;;;;;;5036738;28;20194;-69
2024/01/14 05:47:36;;;;;;;19.17;11.30;;;1.80;99.90;;;;;;5036077;28;20993;-69
2024/01/14 05:50:01;;;;;;;19.00;10.13;;;1.80;99.90;;;;;;5039029;28;20424;-69
2024/01/14 05:52:27;;;;;;;22.30;10.50;;;1.80;99.90;;;;;;5043798;28;20205;-69
2024/01/14 05:54:53;;;;;;;23.33;10.00;;;1.70;99.90;;;;;;5043311;28;20214;-68
2024/01/14 05:57:18;;;;;;;21.20;11.50;;;1.70;99.90;;;;;;5035670;28;20182;-68
2024/01/14 05:59:44;;;;;;;18.33;10.57;;;1.70;99.90;;;;;;5036880;28;20606;-69
2024/01/14 06:02:09;;;;;;;19.30;10.57;;;1.80;99.90;;;;;;5035869;28;20197;-69
2024/01/14 06:04:35;;;;;;;18.70;10.87;;;1.70;99.90;;;;;;5037396;28;20186;-68
2024/01/14 06:07:01;;;;;;;18.27;10.90;;;1.70;99.90;;;;;;5039168;28;20268;-70
2024/01/14 06:09:27;;;;;;;16.93;10.13;;;1.70;99.90;;;;;;5036680;28;20235;-70
2024/01/14 06:11:53;;;;;;;15.60;9.47;;;1.60;99.90;;;;;;5035868;28;20191;-70
2024/01/14 06:14:18;;;;;;;18.93;10.43;;;1.60;99.90;;;;;;5035545;28;20229;-71
2024/01/14 06:16:44;;;;;;;21.27;10.23;;;1.60;99.90;;;;;;5051764;28;20433;-69
2024/01/14 06:19:09;;;;;;;23.00;10.87;;;1.50;99.90;;;;;;5035257;28;20208;-68
2024/01/14 06:21:42;;;;;;;19.27;10.60;;;1.50;99.90;;;;;;5052231;28;20472;-69
2024/01/14 06:24:09;;;;;;;22.30;10.80;;;1.50;99.90;;;;;;5040026;28;20198;-67
2024/01/14 06:26:34;;;;;;;18.87;11.40;;;1.50;99.90;;;;;;5041754;28;20449;-68
2024/01/14 06:29:00;;;;;;;22.33;10.17;;;1.50;99.90;;;;;;5040576;28;20454;-67
2024/01/14 06:31:26;;;;;;;21.87;12.20;;;1.50;99.90;;;;;;5052003;28;20198;-69
2024/01/14 06:33:51;;;;;;;19.00;11.80;;;1.50;99.90;;;;;;5035571;28;20214;-70
2024/01/14 06:36:20;;;;;;;21.13;11.17;;;1.50;99.90;;;;;;5036155;28;20215;-69
2024/01/14 06:38:46;;;;;;;19.37;9.90;;;1.50;99.90;;;;;;5036420;28;20255;-69
2024/01/14 06:41:19;;;;;;;20.40;10.63;;;1.50;99.90;;;;;;5035264;28;20539;-70
2024/01/14 06:43:45;;;;;;;23.17;10.77;;;1.60;99.90;;;;;;5039644;28;21079;-69
2024/01/14 06:46:11;;;;;;;19.53;11.73;;;1.60;99.90;;;;;;5038689;28;20525;-68
2024/01/14 06:48:37;;;;;;;18.00;10.37;;;1.60;99.90;;;;;;5039881;28;20509;-68
2024/01/14 06:51:02;;;;;;;19.33;9.30;;;1.50;99.90;;;;;;5039609;28;20194;-69
2024/01/14 06:53:28;;;;;;;18.97;10.90;;;1.50;99.90;;;;;;5039506;28;20222;-68
2024/01/14 06:55:54;;;;;;;17.43;10.17;;;1.50;99.90;;;;;;5039456;28;20547;-68
2024/01/14 06:58:20;;;;;;;16.63;11.20;;;1.60;99.90;;;;;;5038694;28;20194;-69
2024/01/14 07:00:45;;;;;;;18.43;10.70;;;1.60;99.90;;;;;;5039071;28;20421;-68
2024/01/14 07:03:11;;;;;;;18.40;9.77;;;1.60;99.90;;;;;;5039382;28;20248;-68
2024/01/14 07:05:36;;;;;;;17.00;9.60;;;1.60;99.90;;;;;;5041260;28;20207;-67
2024/01/14 07:08:04;;;;;;;15.30;9.30;;;1.70;99.90;;;;;;5039231;28;20178;-68
2024/01/14 07:10:30;;;;;;;17.63;9.93;;;1.70;99.90;;;;;;5041046;28;20421;-68
2024/01/14 07:12:56;;;;;;;20.50;11.70;;;1.70;99.90;;;;;;5042581;28;20409;-70
2024/01/14 07:15:22;;;;;;;17.10;9.90;;;1.70;99.90;;;;;;5039642;28;20467;-69
2024/01/14 07:17:49;;;;;;;19.90;11.53;;;1.70;99.90;;;;;;5038842;28;20195;-70
2024/01/14 07:20:15;;;;;;;18.47;10.03;;;1.70;99.90;;;;;;5039264;28;20892;-70
2024/01/14 07:22:41;;;;;;;24.10;10.37;;;1.70;99.90;;;;;;5039396;28;20425;-68
2024/01/14 07:25:08;;;;;;;21.23;12.73;;;1.70;99.90;;;;;;5038693;28;20443;-71
2024/01/14 07:27:34;;;;;;;20.77;10.73;;;1.70;99.90;;;;;;5039761;28;20583;-68
2024/01/14 07:30:00;;;;;;;15.20;9.50;;;1.70;99.90;;;;;;5039591;28;20417;-70
2024/01/14 07:32:25;;;;;;;16.20;9.17;;;1.80;99.90;;;;;;5037391;28;20421;-69
2024/01/14 07:34:51;;;;;;;14.20;8.90;;;1.80;99.90;;;;;;5037826;28;20217;-70
2024/01/14 07:37:17;;;;;;;14.40;8.07;;;1.80;99.90;;;;;;5040581;28;20293;-69
2024/01/14 07:39:42;;;;;;;14.77;8.60;;;1.80;99.90;;;;;;5039028;28;20193;-68
2024/01/14 07:42:08;;;;;;;18.00;9.90;;;1.80;99.90;;;;;;5038647;28;20419;-69
2024/01/14 07:44:34;;;;;;;11.30;7.00;;;1.80;99.90;;;;;;5039469;28;20182;-69
2024/01/14 07:46:59;;;;;;;14.40;8.83;;;1.80;99.90;;;;;;5039095;28;20226;-68
2024/01/14 07:49:25;;;;;;;13.63;7.40;;;1.90;99.90;;;;;;5038725;28;20198;-69
2024/01/14 07:51:50;;;;;;;15.50;9.30;;;1.90;99.90;;;;;;5039993;28;20256;-69
2024/01/14 07:54:16;;;;;;;16.00;9.77;;;1.90;99.90;;;;;;5038733;28;20232;-69
2024/01/14 07:56:42;;;;;;;13.87;8.53;;;1.90;99.90;;;;;;5039202;28;20218;-69
2024/01/14 07:59:08;;;;;;;15.53;9.47;;;1.90;99.90;;;;;;5039478;28;20194;-68
2024/01/14 08:01:35;;;;;;;13.23;7.97;;;1.90;99.90;;;;;;5038609;28;20212;-69
2024/01/14 08:04:01;;;;;;;17.07;10.53;;;2.00;99.90;;;;;;5039088;28;20748;-70
2024/01/14 08:06:27;;;;;;;15.17;9.30;;;2.00;99.90;;;;;;5038896;28;20559;-70
2024/01/14 08:08:52;;;;;;;16.20;10.27;;;2.00;99.90;;;;;;5038803;28;20444;-70
2024/01/14 08:11:19;;;;;;;16.10;10.57;;;2.00;99.90;;;;;;5038065;28;20197;-70
2024/01/14 08:13:45;;;;;;;13.50;8.10;;;2.00;99.90;;;;;;5038495;28;20237;-69
2024/01/14 08:16:11;;;;;;;13.80;8.53;;;2.00;99.90;;;;;;5038849;28;20422;-68
2024/01/14 08:18:36;;;;;;;13.43;7.90;;;2.00;99.90;;;;;;5037877;28;20186;-70
2024/01/14 08:21:07;;;;;;;13.90;9.37;;;2.10;99.90;;;;;;5054962;28;20195;-69
2024/01/14 08:23:34;;;;;;;16.03;9.20;;;2.00;99.90;;;;;;5039048;28;20194;-68
2024/01/14 08:26:04;;;;;;;21.17;9.50;;;2.00;99.90;;;;;;5037819;28;20441;-69
2024/01/14 08:28:32;;;;;;;14.23;8.90;;;2.00;99.90;;;;;;5038610;28;20437;-69
2024/01/14 08:30:57;;;;;;;13.03;9.40;;;2.00;99.90;;;;;;5040622;28;20420;-69
2024/01/14 08:33:23;;;;;;;16.20;8.77;;;2.00;99.90;;;;;;5043572;28;20468;-68
2024/01/14 08:35:49;;;;;;;12.93;7.57;;;1.90;99.90;;;;;;5040539;28;20214;-69
2024/01/14 08:38:14;;;;;;;13.77;8.67;;;1.90;99.90;;;;;;5038304;28;20476;-68
2024/01/14 08:40:40;;;;;;;11.40;8.27;;;1.90;99.90;;;;;;5038421;28;20972;-71
2024/01/14 08:43:06;;;;;;;10.93;8.03;;;2.00;99.90;;;;;;5018342;28;20667;-69
2024/01/14 08:45:31;;;;;;;14.47;9.23;;;2.00;99.90;;;;;;5017328;28;20218;-70
2024/01/14 08:47:57;;;;;;;16.00;8.03;;;2.00;99.90;;;;;;5019828;28;20487;-71
2024/01/14 08:50:23;;;;;;;15.77;8.00;;;2.00;99.90;;;;;;5020398;28;20429;-70
2024/01/14 08:52:49;;;;;;;13.00;7.90;;;2.00;99.90;;;;;;5019935;28;20211;-68
2024/01/14 08:55:14;;;;;;;11.87;6.70;;;2.00;99.90;;;;;;5018764;28;20216;-71
2024/01/14 08:57:40;;;;;;;13.60;8.10;;;2.00;99.90;;;;;;5019706;28;20191;-68
2024/01/14 09:00:08;;;;;;;13.30;7.53;;;2.00;99.90;;;;;;5020278;28;20270;-67
2024/01/14 09:02:34;;;;;;;13.60;7.93;;;2.00;99.90;;;;;;5019594;28;20422;-69
2024/01/14 09:05:00;;;;;;;11.77;7.83;;;2.10;99.90;;;;;;5018037;28;20696;-68
2024/01/14 09:07:26;;;;;;;11.40;6.80;;;2.10;99.90;;;;;;5018633;28;20321;-69
2024/01/14 09:09:52;;;;;;;11.80;6.90;;;2.10;99.90;;;;;;5021211;28;20802;-68
2024/01/14 09:12:17;;;;;;;13.83;7.80;;;2.10;99.90;;;;;;5017379;28;20472;-71
2024/01/14 09:14:43;;;;;;;12.30;7.53;;;2.10;99.90;;;;;;5018682;28;20234;-70
2024/01/14 09:17:10;;;;;;;13.30;7.00;;;2.20;99.90;;;;;;5018767;28;20211;-69
2024/01/14 09:19:35;;;;;;;11.67;7.53;;;2.20;99.90;;;;;;5018496;28;20195;-70
2024/01/14 09:22:01;;;;;;;10.97;6.87;;;2.20;99.90;;;;;;5019210;28;20866;-68
2024/01/14 09:24:27;;;;;;;12.87;7.17;;;2.20;99.90;;;;;;5034405;28;20289;-70
2024/01/14 09:26:52;;;;;;;10.77;7.50;;;2.20;99.90;;;;;;5040220;28;20210;-70
2024/01/14 09:29:19;;;;;;;10.03;7.40;;;2.20;99.90;;;;;;5026876;28;20196;-69
2024/01/14 09:31:45;;;;;;;12.40;7.67;;;2.20;99.90;;;;;;5022886;28;20195;-70
2024/01/14 09:34:11;;;;;;;10.67;6.03;;;2.20;99.90;;;;;;5018624;28;20473;-68
2024/01/14 09:36:38;;;;;;;10.47;6.97;;;2.20;99.90;;;;;;5017565;28;20430;-68
2024/01/14 09:39:04;;;;;;;11.40;7.07;;;2.20;99.90;;;;;;5018629;28;20191;-70
2024/01/14 09:41:54;;;;;;;8.40;5.67;;;2.20;99.90;;;;;;5025547;28;20456;-69
2024/01/14 09:44:20;;;;;;;9.17;6.53;;;2.20;99.90;;;;;;5037938;28;20193;-72
2024/01/14 09:46:48;;;;;;;10.03;6.17;;;2.30;99.90;;;;;;5037817;28;20445;-69
2024/01/14 09:49:16;;;;;;;10.63;6.33;;;2.20;99.90;;;;;;5056070;28;20460;-70
2024/01/14 09:51:42;;;;;;;15.30;7.57;;;2.20;99.90;;;;;;5039816;28;20722;-73
2024/01/14 09:54:08;;;;;;;9.50;6.07;;;2.30;99.90;;;;;;5037754;28;20480;-69
2024/01/14 09:56:35;;;;;;;11.23;6.80;;;2.20;99.90;;;;;;5036421;28;20656;-70
2024/01/14 09:59:02;;;;;;;11.07;7.40;;;2.20;99.90;;;;;;5038243;28;20425;-71
2024/01/14 10:01:33;;;;;;;11.93;7.00;;;2.20;99.90;;;;;;5038997;28;20421;-69
2024/01/14 10:04:00;;;;;;;9.53;6.57;;;2.20;99.90;;;;;;5037740;28;20779;-69
2024/01/14 10:06:29;;;;;;;11.37;7.30;;;2.20;99.90;;;;;;5055514;28;20437;-68
2024/01/14 10:08:56;;;;;;;12.87;8.20;;;2.10;99.90;;;;;;5039761;28;20486;-71
2024/01/14 10:11:22;;;;;;;10.40;6.63;;;2.00;99.90;;;;;;5039603;28;20435;-69
2024/01/14 10:13:51;;;;;;;11.50;7.50;;;2.00;99.90;;;;;;5039568;28;20496;-70
2024/01/14 10:16:17;;;;;;;14.67;7.47;;;1.90;99.90;;;;;;5040359;28;20210;-72
2024/01/14 10:18:43;;;;;;;12.67;7.77;;;1.90;99.90;;;;;;5041555;28;20413;-70
2024/01/14 10:21:11;;;;;;;10.23;6.63;;;1.90;99.90;;;;;;5046170;28;20443;-70
2024/01/14 10:23:39;;;;;;;10.37;7.20;;;1.90;99.90;;;;;;5044280;28;20198;-70
2024/01/14 10:26:06;;;;;;;13.57;7.60;;;2.00;99.90;;;;;;5041500;28;20437;-70
2024/01/14 10:28:35;;;;;;;12.23;6.90;;;2.00;99.90;;;;;;5042756;28;20782;-71
2024/01/14 10:31:03;;;;;;;11.77;7.87;;;2.00;99.90;;;;;;5043755;28;20417;-68
2024/01/14 10:33:33;;;;;;;12.70;7.97;;;2.10;99.90;;;;;;5043241;28;20466;-70
2024/01/14 10:35:59;;;;;;;11.63;6.90;;;2.20;99.90;;;;;;5048506;28;20437;-71
2024/01/14 10:38:25;;;;;;;11.10;6.90;;;2.20;99.90;;;;;;5043187;28;20480;-72
2024/01/14 10:40:51;;;;;;;13.70;8.37;;;2.30;99.90;;;;;;5041401;28;20874;-70
2024/01/14 10:43:17;;;;;;;12.90;7.53;;;2.30;99.90;;;;;;5042122;28;20209;-70
2024/01/14 10:45:47;;;;;;;13.07;7.23;;;2.30;99.90;;;;;;5042597;28;20469;-69
2024/01/14 10:48:16;;;;;;;12.90;8.00;;;2.40;99.90;;;;;;5042240;28;20201;-69
2024/01/14 10:50:44;;;;;;;10.70;6.60;;;2.40;99.90;;;;;;5041506;28;20419;-68
2024/01/14 10:53:19;;;;;;;11.47;7.50;;;2.40;99.90;;;;;;5040973;28;20519;-69
2024/01/14 10:55:50;;;;;;;12.40;7.87;;;2.50;99.90;;;;;;5041466;28;20446;-69
2024/01/14 10:58:29;;;;;;;11.73;7.27;;;2.50;99.90;;;;;;5044619;28;20417;-70
2024/01/14 11:01:06;;;;;;;9.67;6.90;;;2.50;99.90;;;;;;5027819;28;20514;-71
2024/01/14 11:03:33;;;;;;;11.40;7.00;;;2.60;99.90;;;;;;5045748;28;20483;-73
2024/01/14 11:05:59;;;;;;;12.00;7.70;;;2.60;99.90;;;;;;5046357;28;20452;-70
2024/01/14 11:08:26;;;;;;;8.03;6.10;;;2.50;99.90;;;;;;5082767;28;20423;-69
2024/01/14 11:10:53;;;;;;;13.70;7.53;;;2.50;99.90;;;;;;5081075;28;20419;-73
2024/01/14 11:13:24;;;;;;;8.73;6.37;;;2.60;99.90;;;;;;5084323;28;20539;-70
2024/01/14 11:16:06;;;;;;;9.17;5.60;;;2.60;99.90;;;;;;5082565;28;20455;-70
2024/01/14 11:18:42;;;;;;;10.07;6.60;;;2.50;99.90;;;;;;5080183;28;20444;-69
2024/01/14 11:21:28;;;;;;;8.40;5.93;;;2.50;99.90;;;;;;5073705;28;20716;-71
2024/01/14 11:23:55;;;;;;;12.07;7.80;;;2.50;99.90;;;;;;5072890;28;20411;-72
2024/01/14 11:26:24;;;;;;;9.30;6.07;;;2.40;99.90;;;;;;5076767;28;20452;-72
2024/01/14 11:28:51;;;;;;;8.90;6.93;;;2.40;99.90;;;;;;5063182;28;20419;-72
2024/01/14 11:31:17;;;;;;;12.40;6.67;;;2.40;99.90;;;;;;5051181;28;20412;-72
2024/01/14 11:33:46;;;;;;;12.90;8.07;;;2.30;99.90;;;;;;5066903;28;20598;-70
2024/01/14 11:36:13;;;;;;;10.30;6.20;;;2.40;99.90;;;;;;5073019;28;20432;-70
2024/01/14 11:38:45;;;;;;;8.73;6.43;;;2.40;99.90;;;;;;5051785;28;20420;-72
2024/01/14 11:41:29;;;;;;;14.10;8.60;;;2.30;99.90;;;;;;5073484;28;20491;-71
2024/01/14 11:44:01;;;;;;;9.97;7.67;;;2.30;99.90;;;;;;5064914;28;20437;-71
2024/01/14 11:46:43;;;;;;;12.13;7.93;;;2.30;99.90;;;;;;5077622;28;20554;-69
2024/01/14 11:49:10;;;;;;;10.07;6.60;;;2.20;99.90;;;;;;5073277;28;20839;-72
2024/01/14 11:51:43;;;;;;;10.13;6.57;;;2.20;99.90;;;;;;5076297;28;20431;-71
2024/01/14 11:54:10;;;;;;;9.90;6.87;;;2.20;99.90;;;;;;5071287;28;20463;-71
2024/01/14 11:56:37;;;;;;;10.33;6.93;;;2.20;99.90;;;;;;5071481;28;20444;-70
2024/01/14 11:59:13;;;;;;;12.37;7.10;;;2.30;99.90;;;;;;5070959;28;20473;-73
2024/01/14 12:01:39;;;;;;;11.80;7.40;;;2.30;99.90;;;;;;5079774;28;20421;-71
2024/01/14 12:04:10;;;;;;;10.27;7.50;;;2.30;99.90;;;;;;5068586;28;20461;-72
2024/01/14 12:06:39;;;;;;;14.47;8.00;;;2.40;99.90;;;;;;5081375;28;20443;-73
2024/01/14 12:09:07;;;;;;;16.33;7.63;;;2.50;99.90;;;;;;5076015;28;20453;-69
2024/01/14 12:11:36;;;;;;;9.57;6.80;;;2.50;99.90;;;;;;5069288;28;20524;-70
2024/01/14 12:14:03;;;;;;;8.63;6.83;;;2.40;99.90;;;;;;5053886;28;20459;-70
2024/01/14 12:16:32;;;;;;;8.87;6.00;;;2.40;99.90;;;;;;5078754;28;20439;-70
2024/01/14 12:18:58;;;;;;;9.00;5.33;;;2.40;99.90;;;;;;5071213;28;20431;-72
2024/01/14 12:21:29;;;;;;;9.07;6.13;;;2.40;99.90;;;;;;5048440;28;20424;-71
2024/01/14 12:23:55;;;;;;;9.57;5.93;;;2.40;99.90;;;;;;5055929;28;20943;-71
2024/01/14 12:26:21;;;;;;;9.97;7.13;;;2.50;99.90;;;;;;5079264;28;20467;-74
2024/01/14 12:28:48;;;;;;;11.27;6.70;;;2.40;99.90;;;;;;5074712;28;20439;-72
2024/01/14 12:31:21;;;;;;;11.30;6.37;;;2.40;99.90;;;;;;5076092;28;20964;-69
2024/01/14 12:33:47;;;;;;;8.30;5.50;;;2.40;99.90;;;;;;5078391;28;20467;-70
2024/01/14 12:36:14;;;;;;;10.50;6.43;;;2.40;99.90;;;;;;5083608;28;20423;-71
2024/01/14 12:38:43;;;;;;;7.60;5.67;;;2.50;99.90;;;;;;5074686;28;20430;-70
2024/01/14 12:41:09;;;;;;;8.10;5.43;;;2.50;99.90;;;;;;5074816;28;20474;-71